sensor_id;sensor_type;location;lat;lon;timestamp;temperature;humidity
70807;DHT22;58882;52.170;5.386;2023-06-14T00:02:51;24.10;32.50
70807;DHT22;58882;52.170;5.386;2023-06-14T00:05:31;24.10;32.70
70807;DHT22;58882;52.170;5.386;2023-06-14T00:08:30;24.00;32.70
70807;DHT22;58882;52.170;5.386;2023-06-14T00:11:10;24.00;32.70
70807;DHT22;58882;52.170;5.386;2023-06-14T00:13:57;24.00;32.70
70807;DHT22;58882;52.170;5.386;2023-06-14T00:16:30;24.00;32.80
70807;DHT22;58882;52.170;5.386;2023-06-14T00:19:25;24.00;32.80
70807;DHT22;58882;52.170;5.386;2023-06-14T00:22:08;24.00;32.90
70807;DHT22;58882;52.170;5.386;2023-06-14T00:24:56;24.00;33.00
70807;DHT22;58882;52.170;5.386;2023-06-14T00:27:29;23.90;33.00
70807;DHT22;58882;52.170;5.386;2023-06-14T00:30:23;23.90;33.00
70807;DHT22;58882;52.170;5.386;2023-06-14T00:32:57;23.90;33.00
70807;DHT22;58882;52.170;5.386;2023-06-14T00:35:51;23.90;33.00
70807;DHT22;58882;52.170;5.386;2023-06-14T00:38:31;23.90;33.00
70807;DHT22;58882;52.170;5.386;2023-06-14T00:41:18;23.90;33.00
70807;DHT22;58882;52.170;5.386;2023-06-14T00:43:51;23.80;33.00
70807;DHT22;58882;52.170;5.386;2023-06-14T00:46:47;23.80;33.10
70807;DHT22;58882;52.170;5.386;2023-06-14T00:49:28;23.80;33.10
70807;DHT22;58882;52.170;5.386;2023-06-14T00:52:16;23.80;33.20
70807;DHT22;58882;52.170;5.386;2023-06-14T00:54:57;23.80;33.20
70807;DHT22;58882;52.170;5.386;2023-06-14T00:57:51;23.80;33.20
70807;DHT22;58882;52.170;5.386;2023-06-14T01:00:24;23.80;33.20
70807;DHT22;58882;52.170;5.386;2023-06-14T01:03:18;23.80;33.10
70807;DHT22;58882;52.170;5.386;2023-06-14T01:12:41;23.70;33.40
70807;DHT22;58882;52.170;5.386;2023-06-14T01:15:31;23.70;33.40
70807;DHT22;58882;52.170;5.386;2023-06-14T01:18:05;23.70;33.40
70807;DHT22;58882;52.170;5.386;2023-06-14T01:21:04;23.70;33.40
70807;DHT22;58882;52.170;5.386;2023-06-14T01:23:47;23.70;33.40
70807;DHT22;58882;52.170;5.386;2023-06-14T01:26:36;23.60;33.40
70807;DHT22;58882;52.170;5.386;2023-06-14T01:29:18;23.60;33.40
70807;DHT22;58882;52.170;5.386;2023-06-14T01:32:12;23.60;33.40
70807;DHT22;58882;52.170;5.386;2023-06-14T01:34:52;23.60;33.60
70807;DHT22;58882;52.170;5.386;2023-06-14T01:37:40;23.60;33.60
70807;DHT22;58882;52.170;5.386;2023-06-14T01:40:21;23.60;33.70
70807;DHT22;58882;52.170;5.386;2023-06-14T01:43:11;23.50;33.60
70807;DHT22;58882;52.170;5.386;2023-06-14T01:46:00;23.50;33.80
70807;DHT22;58882;52.170;5.386;2023-06-14T01:48:40;23.50;33.80
70807;DHT22;58882;52.170;5.386;2023-06-14T01:51:27;23.50;33.70
70807;DHT22;58882;52.170;5.386;2023-06-14T01:54:00;23.50;34.90
70807;DHT22;58882;52.170;5.386;2023-06-14T01:56:54;23.50;34.00
70807;DHT22;58882;52.170;5.386;2023-06-14T01:59:27;23.50;34.00
70807;DHT22;58882;52.170;5.386;2023-06-14T02:02:22;23.50;33.90
70807;DHT22;58882;52.170;5.386;2023-06-14T02:05:02;23.40;33.90
70807;DHT22;58882;52.170;5.386;2023-06-14T02:07:56;23.40;33.90
70807;DHT22;58882;52.170;5.386;2023-06-14T02:10:37;23.40;34.00
70807;DHT22;58882;52.170;5.386;2023-06-14T02:13:24;23.40;34.10
70807;DHT22;58882;52.170;5.386;2023-06-14T02:15:57;23.40;34.10
70807;DHT22;58882;52.170;5.386;2023-06-14T02:18:51;23.40;34.10
70807;DHT22;58882;52.170;5.386;2023-06-14T02:21:31;23.40;34.10
70807;DHT22;58882;52.170;5.386;2023-06-14T02:24:18;23.30;34.20
70807;DHT22;58882;52.170;5.386;2023-06-14T02:26:58;23.30;34.20
70807;DHT22;58882;52.170;5.386;2023-06-14T02:30:03;23.30;34.30
70807;DHT22;58882;52.170;5.386;2023-06-14T02:32:44;23.30;34.30
70807;DHT22;58882;52.170;5.386;2023-06-14T02:35:38;23.30;34.30
70807;DHT22;58882;52.170;5.386;2023-06-14T02:38:12;23.30;34.30
70807;DHT22;58882;52.170;5.386;2023-06-14T02:41:06;23.30;34.20
70807;DHT22;58882;52.170;5.386;2023-06-14T02:43:39;23.20;34.20
70807;DHT22;58882;52.170;5.386;2023-06-14T02:46:34;23.20;34.20
70807;DHT22;58882;52.170;5.386;2023-06-14T02:49:14;23.20;34.20
70807;DHT22;58882;52.170;5.386;2023-06-14T02:52:01;23.20;34.30
70807;DHT22;58882;52.170;5.386;2023-06-14T02:54:42;23.20;34.50
70807;DHT22;58882;52.170;5.386;2023-06-14T02:57:29;23.10;34.40
70807;DHT22;58882;52.170;5.386;2023-06-14T03:00:03;23.10;34.40
70807;DHT22;58882;52.170;5.386;2023-06-14T03:03:17;23.10;34.40
70807;DHT22;58882;52.170;5.386;2023-06-14T03:05:54;23.10;34.50
70807;DHT22;58882;52.170;5.386;2023-06-14T03:08:56;23.10;34.50
70807;DHT22;58882;52.170;5.386;2023-06-14T03:11:35;23.00;34.60
70807;DHT22;58882;52.170;5.386;2023-06-14T03:14:29;23.00;34.50
70807;DHT22;58882;52.170;5.386;2023-06-14T03:17:03;23.10;34.60
70807;DHT22;58882;52.170;5.386;2023-06-14T03:19:58;23.00;34.50
70807;DHT22;58882;52.170;5.386;2023-06-14T03:22:32;23.00;34.60
70807;DHT22;58882;52.170;5.386;2023-06-14T03:25:27;23.00;34.60
70807;DHT22;58882;52.170;5.386;2023-06-14T03:28:10;23.00;34.70
70807;DHT22;58882;52.170;5.386;2023-06-14T03:31:00;23.00;34.60
70807;DHT22;58882;52.170;5.386;2023-06-14T03:33:40;23.00;34.70
70807;DHT22;58882;52.170;5.386;2023-06-14T03:36:27;22.90;34.60
70807;DHT22;58882;52.170;5.386;2023-06-14T03:39:07;22.90;34.70
70807;DHT22;58882;52.170;5.386;2023-06-14T03:42:02;22.90;34.60
70807;DHT22;58882;52.170;5.386;2023-06-14T03:44:43;22.90;34.70
70807;DHT22;58882;52.170;5.386;2023-06-14T03:47:31;22.90;34.80
70807;DHT22;58882;52.170;5.386;2023-06-14T03:50:11;22.90;35.00
70807;DHT22;58882;52.170;5.386;2023-06-14T03:52:59;22.80;34.90
70807;DHT22;58882;52.170;5.386;2023-06-14T03:55:37;22.80;35.00
70807;DHT22;58882;52.170;5.386;2023-06-14T03:58:44;22.80;35.00
70807;DHT22;58882;52.170;5.386;2023-06-14T04:01:19;22.80;35.10
70807;DHT22;58882;52.170;5.386;2023-06-14T04:04:16;22.80;35.10
70807;DHT22;58882;52.170;5.386;2023-06-14T04:06:49;22.70;35.10
70807;DHT22;58882;52.170;5.386;2023-06-14T04:09:45;22.80;35.20
70807;DHT22;58882;52.170;5.386;2023-06-14T04:12:25;22.70;35.10
70807;DHT22;58882;52.170;5.386;2023-06-14T04:15:12;22.70;35.10
70807;DHT22;58882;52.170;5.386;2023-06-14T04:17:55;22.70;35.10
70807;DHT22;58882;52.170;5.386;2023-06-14T04:20:49;22.70;35.20
70807;DHT22;58882;52.170;5.386;2023-06-14T04:23:23;22.70;35.20
70807;DHT22;58882;52.170;5.386;2023-06-14T04:26:18;22.70;35.30
70807;DHT22;58882;52.170;5.386;2023-06-14T04:29:00;22.70;35.30
70807;DHT22;58882;52.170;5.386;2023-06-14T04:31:48;22.70;35.30
70807;DHT22;58882;52.170;5.386;2023-06-14T04:34:29;22.70;35.50
70807;DHT22;58882;52.170;5.386;2023-06-14T04:37:24;22.70;35.50
70807;DHT22;58882;52.170;5.386;2023-06-14T04:40:05;22.70;35.60
70807;DHT22;58882;52.170;5.386;2023-06-14T04:42:59;22.70;35.60
70807;DHT22;58882;52.170;5.386;2023-06-14T04:45:48;22.70;35.70
70807;DHT22;58882;52.170;5.386;2023-06-14T04:48:44;22.70;35.70
70807;DHT22;58882;52.170;5.386;2023-06-14T04:51:24;22.70;35.80
70807;DHT22;58882;52.170;5.386;2023-06-14T04:54:16;22.70;35.80
70807;DHT22;58882;52.170;5.386;2023-06-14T04:56:57;22.70;35.80
70807;DHT22;58882;52.170;5.386;2023-06-14T04:59:46;22.70;36.00
70807;DHT22;58882;52.170;5.386;2023-06-14T05:02:30;22.70;36.00
70807;DHT22;58882;52.170;5.386;2023-06-14T05:05:17;22.70;36.00
70807;DHT22;58882;52.170;5.386;2023-06-14T05:07:59;22.70;35.80
70807;DHT22;58882;52.170;5.386;2023-06-14T05:10:46;22.70;36.00
70807;DHT22;58882;52.170;5.386;2023-06-14T05:13:26;22.70;36.10
70807;DHT22;58882;52.170;5.386;2023-06-14T05:16:14;22.70;36.10
70807;DHT22;58882;52.170;5.386;2023-06-14T05:18:52;22.70;36.20
70807;DHT22;58882;52.170;5.386;2023-06-14T05:21:48;22.70;36.20
70807;DHT22;58882;52.170;5.386;2023-06-14T05:24:21;22.70;36.20
70807;DHT22;58882;52.170;5.386;2023-06-14T05:27:17;22.70;36.20
70807;DHT22;58882;52.170;5.386;2023-06-14T05:29:50;22.70;36.20
70807;DHT22;58882;52.170;5.386;2023-06-14T05:32:45;22.80;36.20
70807;DHT22;58882;52.170;5.386;2023-06-14T05:35:25;22.80;36.30
70807;DHT22;58882;52.170;5.386;2023-06-14T05:38:12;22.80;36.20
70807;DHT22;58882;52.170;5.386;2023-06-14T05:40:52;22.70;36.20
70807;DHT22;58882;52.170;5.386;2023-06-14T05:43:39;22.80;36.40
70807;DHT22;58882;52.170;5.386;2023-06-14T05:46:26;22.80;36.30
70807;DHT22;58882;52.170;5.386;2023-06-14T05:49:20;22.80;36.40
70807;DHT22;58882;52.170;5.386;2023-06-14T05:52:00;22.80;36.40
70807;DHT22;58882;52.170;5.386;2023-06-14T05:54:47;22.90;36.40
70807;DHT22;58882;52.170;5.386;2023-06-14T05:57:27;22.90;36.30
70807;DHT22;58882;52.170;5.386;2023-06-14T06:00:15;22.90;36.30
70807;DHT22;58882;52.170;5.386;2023-06-14T06:02:55;22.90;36.40
70807;DHT22;58882;52.170;5.386;2023-06-14T06:05:42;22.90;36.40
70807;DHT22;58882;52.170;5.386;2023-06-14T06:08:22;22.90;36.30
70807;DHT22;58882;52.170;5.386;2023-06-14T06:11:09;23.00;36.40
70807;DHT22;58882;52.170;5.386;2023-06-14T06:13:49;23.00;36.30
70807;DHT22;58882;52.170;5.386;2023-06-14T06:16:36;23.00;36.10
70807;DHT22;58882;52.170;5.386;2023-06-14T06:19:16;23.00;36.20
70807;DHT22;58882;52.170;5.386;2023-06-14T06:22:03;23.10;35.90
70807;DHT22;58882;52.170;5.386;2023-06-14T06:24:46;23.10;35.90
70807;DHT22;58882;52.170;5.386;2023-06-14T06:27:33;23.10;35.70
70807;DHT22;58882;52.170;5.386;2023-06-14T06:30:13;23.10;35.60
70807;DHT22;58882;52.170;5.386;2023-06-14T06:33:00;23.20;35.60
70807;DHT22;58882;52.170;5.386;2023-06-14T06:35:40;23.20;35.60
70807;DHT22;58882;52.170;5.386;2023-06-14T06:38:27;23.30;35.60
70807;DHT22;58882;52.170;5.386;2023-06-14T06:41:07;23.30;35.60
70807;DHT22;58882;52.170;5.386;2023-06-14T06:44:01;23.30;35.40
70807;DHT22;58882;52.170;5.386;2023-06-14T06:46:48;23.40;35.10
70807;DHT22;58882;52.170;5.386;2023-06-14T06:49:42;23.40;34.90
70807;DHT22;58882;52.170;5.386;2023-06-14T06:52:15;23.40;34.90
70807;DHT22;58882;52.170;5.386;2023-06-14T06:55:09;23.40;34.80
70807;DHT22;58882;52.170;5.386;2023-06-14T06:57:49;23.40;35.10
70807;DHT22;58882;52.170;5.386;2023-06-14T07:00:36;23.40;35.10
70807;DHT22;58882;52.170;5.386;2023-06-14T07:03:16;23.40;35.00
70807;DHT22;58882;52.170;5.386;2023-06-14T07:06:03;23.40;35.00
70807;DHT22;58882;52.170;5.386;2023-06-14T07:08:43;23.40;34.70
70807;DHT22;58882;52.170;5.386;2023-06-14T07:11:30;23.40;34.60
70807;DHT22;58882;52.170;5.386;2023-06-14T07:14:10;23.40;34.90
70807;DHT22;58882;52.170;5.386;2023-06-14T07:16:57;23.40;34.90
70807;DHT22;58882;52.170;5.386;2023-06-14T07:19:37;23.40;34.80
70807;DHT22;58882;52.170;5.386;2023-06-14T07:22:31;23.50;34.70
70807;DHT22;58882;52.170;5.386;2023-06-14T07:25:12;23.60;34.70
70807;DHT22;58882;52.170;5.386;2023-06-14T07:28:01;23.70;34.60
70807;DHT22;58882;52.170;5.386;2023-06-14T07:30:35;23.70;34.20
70807;DHT22;58882;52.170;5.386;2023-06-14T07:33:29;23.80;34.30
70807;DHT22;58882;52.170;5.386;2023-06-14T07:36:09;24.00;34.10
70807;DHT22;58882;52.170;5.386;2023-06-14T07:38:57;24.20;34.00
70807;DHT22;58882;52.170;5.386;2023-06-14T07:41:37;24.50;34.50
70807;DHT22;58882;52.170;5.386;2023-06-14T07:44:24;24.80;33.00
70807;DHT22;58882;52.170;5.386;2023-06-14T07:47:11;25.10;32.40
70807;DHT22;58882;52.170;5.386;2023-06-14T07:49:51;25.50;31.80
70807;DHT22;58882;52.170;5.386;2023-06-14T07:52:40;25.90;31.60
70807;DHT22;58882;52.170;5.386;2023-06-14T07:55:20;26.30;31.00
70807;DHT22;58882;52.170;5.386;2023-06-14T07:58:15;26.70;30.60
70807;DHT22;58882;52.170;5.386;2023-06-14T08:00:55;27.20;30.00
70807;DHT22;58882;52.170;5.386;2023-06-14T08:03:53;27.60;29.50
70807;DHT22;58882;52.170;5.386;2023-06-14T08:06:27;28.00;29.20
70807;DHT22;58882;52.170;5.386;2023-06-14T08:09:21;28.30;28.80
70807;DHT22;58882;52.170;5.386;2023-06-14T08:11:55;28.60;28.60
70807;DHT22;58882;52.170;5.386;2023-06-14T08:14:49;28.90;28.30
70807;DHT22;58882;52.170;5.386;2023-06-14T08:17:43;29.10;27.80
70807;DHT22;58882;52.170;5.386;2023-06-14T08:20:38;29.40;27.40
70807;DHT22;58882;52.170;5.386;2023-06-14T08:23:13;29.60;27.20
70807;DHT22;58882;52.170;5.386;2023-06-14T08:26:09;29.80;27.00
70807;DHT22;58882;52.170;5.386;2023-06-14T08:28:42;30.10;26.80
70807;DHT22;58882;52.170;5.386;2023-06-14T08:31:36;30.30;26.80
70807;DHT22;58882;52.170;5.386;2023-06-14T08:34:09;30.40;26.30
70807;DHT22;58882;52.170;5.386;2023-06-14T08:37:03;30.60;26.10
70807;DHT22;58882;52.170;5.386;2023-06-14T08:39:37;30.70;25.80
70807;DHT22;58882;52.170;5.386;2023-06-14T08:42:32;30.90;25.80
70807;DHT22;58882;52.170;5.386;2023-06-14T08:45:05;31.00;25.40
70807;DHT22;58882;52.170;5.386;2023-06-14T08:47:59;31.10;25.30
70807;DHT22;58882;52.170;5.386;2023-06-14T08:50:40;31.20;25.80
70807;DHT22;58882;52.170;5.386;2023-06-14T08:53:36;31.40;24.90
70807;DHT22;58882;52.170;5.386;2023-06-14T08:56:18;31.50;24.60
70807;DHT22;58882;52.170;5.386;2023-06-14T08:59:06;31.60;24.40
70807;DHT22;58882;52.170;5.386;2023-06-14T09:01:46;31.70;24.30
70807;DHT22;58882;52.170;5.386;2023-06-14T09:04:52;31.90;24.20
70807;DHT22;58882;52.170;5.386;2023-06-14T09:07:25;32.00;24.00
70807;DHT22;58882;52.170;5.386;2023-06-14T09:10:20;32.00;23.70
70807;DHT22;58882;52.170;5.386;2023-06-14T09:13:01;32.10;23.50
70807;DHT22;58882;52.170;5.386;2023-06-14T09:15:48;32.20;23.40
70807;DHT22;58882;52.170;5.386;2023-06-14T09:18:40;32.30;23.20
70807;DHT22;58882;52.170;5.386;2023-06-14T09:21:40;32.40;23.10
70807;DHT22;58882;52.170;5.386;2023-06-14T09:24:14;32.40;23.00
70807;DHT22;58882;52.170;5.386;2023-06-14T09:27:08;32.50;23.00
70807;DHT22;58882;52.170;5.386;2023-06-14T09:29:41;32.60;22.80
70807;DHT22;58882;52.170;5.386;2023-06-14T09:32:39;32.70;22.80
70807;DHT22;58882;52.170;5.386;2023-06-14T09:35:20;32.70;22.80
70807;DHT22;58882;52.170;5.386;2023-06-14T09:38:07;32.80;22.60
70807;DHT22;58882;52.170;5.386;2023-06-14T09:40:49;32.80;22.50
70807;DHT22;58882;52.170;5.386;2023-06-14T09:43:43;32.90;22.40
70807;DHT22;58882;52.170;5.386;2023-06-14T09:46:31;32.90;22.20
70807;DHT22;58882;52.170;5.386;2023-06-14T09:49:12;32.90;22.10
70807;DHT22;58882;52.170;5.386;2023-06-14T09:51:59;33.00;22.20
70807;DHT22;58882;52.170;5.386;2023-06-14T09:54:44;33.00;22.10
70807;DHT22;58882;52.170;5.386;2023-06-14T09:57:32;33.10;21.90
70807;DHT22;58882;52.170;5.386;2023-06-14T10:00:15;33.10;21.90
70807;DHT22;58882;52.170;5.386;2023-06-14T10:03:14;33.10;21.60
70807;DHT22;58882;52.170;5.386;2023-06-14T10:05:55;33.20;21.60
70807;DHT22;58882;52.170;5.386;2023-06-14T10:08:45;33.20;21.60
70807;DHT22;58882;52.170;5.386;2023-06-14T10:11:26;33.20;21.60
70807;DHT22;58882;52.170;5.386;2023-06-14T10:14:13;33.20;21.60
70807;DHT22;58882;52.170;5.386;2023-06-14T10:17:03;33.20;21.60
70807;DHT22;58882;52.170;5.386;2023-06-14T10:20:16;33.20;21.60
70807;DHT22;58882;52.170;5.386;2023-06-14T10:23:18;33.20;21.60
70807;DHT22;58882;52.170;5.386;2023-06-14T10:25:59;33.20;21.60
70807;DHT22;58882;52.170;5.386;2023-06-14T10:29:08;33.10;21.50
70807;DHT22;58882;52.170;5.386;2023-06-14T10:31:47;33.10;21.60
70807;DHT22;58882;52.170;5.386;2023-06-14T10:34:41;33.10;21.60
70807;DHT22;58882;52.170;5.386;2023-06-14T10:37:14;33.10;21.60
70807;DHT22;58882;52.170;5.386;2023-06-14T10:40:08;33.10;21.60
70807;DHT22;58882;52.170;5.386;2023-06-14T10:42:51;33.00;21.50
70807;DHT22;58882;52.170;5.386;2023-06-14T10:46:11;33.00;21.60
70807;DHT22;58882;52.170;5.386;2023-06-14T10:48:57;32.90;21.50
70807;DHT22;58882;52.170;5.386;2023-06-14T10:51:55;32.90;21.50
70807;DHT22;58882;52.170;5.386;2023-06-14T10:54:55;32.80;21.40
70807;DHT22;58882;52.170;5.386;2023-06-14T10:57:51;32.70;21.40
70807;DHT22;58882;52.170;5.386;2023-06-14T11:00:33;32.60;21.50
70807;DHT22;58882;52.170;5.386;2023-06-14T11:03:52;32.60;21.60
70807;DHT22;58882;52.170;5.386;2023-06-14T11:06:48;32.50;21.70
70807;DHT22;58882;52.170;5.386;2023-06-14T11:12:54;32.40;21.70
70807;DHT22;58882;52.170;5.386;2023-06-14T11:15:48;32.40;21.70
70807;DHT22;58882;52.170;5.386;2023-06-14T11:18:29;32.30;21.70
70807;DHT22;58882;52.170;5.386;2023-06-14T11:21:17;32.20;21.80
70807;DHT22;58882;52.170;5.386;2023-06-14T11:23:58;32.10;21.70
70807;DHT22;58882;52.170;5.386;2023-06-14T11:26:47;32.10;21.80
70807;DHT22;58882;52.170;5.386;2023-06-14T11:29:29;32.00;22.00
70807;DHT22;58882;52.170;5.386;2023-06-14T11:32:16;31.90;22.00
70807;DHT22;58882;52.170;5.386;2023-06-14T11:34:56;31.90;22.00
70807;DHT22;58882;52.170;5.386;2023-06-14T11:37:44;31.80;22.10
70807;DHT22;58882;52.170;5.386;2023-06-14T11:40:27;31.70;22.10
70807;DHT22;58882;52.170;5.386;2023-06-14T11:43:14;31.60;22.30
70807;DHT22;58882;52.170;5.386;2023-06-14T11:45:54;31.50;22.30
70807;DHT22;58882;52.170;5.386;2023-06-14T11:48:48;31.50;22.40
70807;DHT22;58882;52.170;5.386;2023-06-14T11:51:29;31.40;22.50
70807;DHT22;58882;52.170;5.386;2023-06-14T11:54:16;31.30;22.60
70807;DHT22;58882;52.170;5.386;2023-06-14T11:56:56;31.20;22.60
70807;DHT22;58882;52.170;5.386;2023-06-14T11:59:50;31.10;22.80
70807;DHT22;58882;52.170;5.386;2023-06-14T12:02:37;31.00;22.80
70807;DHT22;58882;52.170;5.386;2023-06-14T12:05:25;30.90;23.00
70807;DHT22;58882;52.170;5.386;2023-06-14T12:08:06;30.90;23.00
70807;DHT22;58882;52.170;5.386;2023-06-14T12:10:57;30.80;23.00
70807;DHT22;58882;52.170;5.386;2023-06-14T12:13:40;30.70;23.00
70807;DHT22;58882;52.170;5.386;2023-06-14T12:16:33;30.60;23.10
70807;DHT22;58882;52.170;5.386;2023-06-14T12:19:16;30.50;23.10
70807;DHT22;58882;52.170;5.386;2023-06-14T12:22:04;30.50;23.30
70807;DHT22;58882;52.170;5.386;2023-06-14T12:24:45;30.40;23.30
70807;DHT22;58882;52.170;5.386;2023-06-14T12:27:33;30.40;23.40
70807;DHT22;58882;52.170;5.386;2023-06-14T12:30:13;30.30;23.50
70807;DHT22;58882;52.170;5.386;2023-06-14T12:33:01;30.20;23.50
70807;DHT22;58882;52.170;5.386;2023-06-14T12:35:42;30.10;23.50
70807;DHT22;58882;52.170;5.386;2023-06-14T12:38:29;30.10;23.70
70807;DHT22;58882;52.170;5.386;2023-06-14T12:41:09;30.00;23.70
70807;DHT22;58882;52.170;5.386;2023-06-14T12:43:56;30.00;23.80
70807;DHT22;58882;52.170;5.386;2023-06-14T12:46:37;29.90;23.90
70807;DHT22;58882;52.170;5.386;2023-06-14T12:49:24;29.80;24.00
70807;DHT22;58882;52.170;5.386;2023-06-14T12:52:04;29.80;24.10
70807;DHT22;58882;52.170;5.386;2023-06-14T12:54:58;29.70;24.10
70807;DHT22;58882;52.170;5.386;2023-06-14T12:57:38;29.60;24.20
70807;DHT22;58882;52.170;5.386;2023-06-14T13:00:32;29.60;24.30
70807;DHT22;58882;52.170;5.386;2023-06-14T13:03:12;29.40;24.20
70807;DHT22;58882;52.170;5.386;2023-06-14T13:05:59;29.40;24.30
70807;DHT22;58882;52.170;5.386;2023-06-14T13:08:40;29.30;24.40
70807;DHT22;58882;52.170;5.386;2023-06-14T13:11:28;29.20;24.50
70807;DHT22;58882;52.170;5.386;2023-06-14T13:14:08;29.20;24.50
70807;DHT22;58882;52.170;5.386;2023-06-14T13:17:05;29.10;24.70
70807;DHT22;58882;52.170;5.386;2023-06-14T13:19:45;29.00;24.70
70807;DHT22;58882;52.170;5.386;2023-06-14T13:22:32;28.90;24.70
70807;DHT22;58882;52.170;5.386;2023-06-14T13:25:12;28.80;24.70
70807;DHT22;58882;52.170;5.386;2023-06-14T13:27:59;28.70;24.90
70807;DHT22;58882;52.170;5.386;2023-06-14T13:30:39;28.70;25.00
70807;DHT22;58882;52.170;5.386;2023-06-14T13:33:26;28.60;25.00
70807;DHT22;58882;52.170;5.386;2023-06-14T13:36:06;28.50;25.00
70807;DHT22;58882;52.170;5.386;2023-06-14T13:38:53;28.50;25.20
70807;DHT22;58882;52.170;5.386;2023-06-14T13:41:34;28.40;26.00
70807;DHT22;58882;52.170;5.386;2023-06-14T13:44:21;28.40;25.30
70807;DHT22;58882;52.170;5.386;2023-06-14T13:47:08;28.30;25.20
70807;DHT22;58882;52.170;5.386;2023-06-14T13:50:03;28.30;25.30
70807;DHT22;58882;52.170;5.386;2023-06-14T13:52:43;28.20;25.50
70807;DHT22;58882;52.170;5.386;2023-06-14T13:55:30;28.20;25.60
70807;DHT22;58882;52.170;5.386;2023-06-14T13:58:10;28.10;25.70
70807;DHT22;58882;52.170;5.386;2023-06-14T14:00:57;28.10;25.70
70807;DHT22;58882;52.170;5.386;2023-06-14T14:03:39;28.00;25.70
70807;DHT22;58882;52.170;5.386;2023-06-14T14:06:33;28.00;25.90
70807;DHT22;58882;52.170;5.386;2023-06-14T14:09:07;27.90;25.90
70807;DHT22;58882;52.170;5.386;2023-06-14T14:12:02;27.80;25.90
70807;DHT22;58882;52.170;5.386;2023-06-14T14:14:36;27.80;26.00
70807;DHT22;58882;52.170;5.386;2023-06-14T14:17:30;27.80;26.20
70807;DHT22;58882;52.170;5.386;2023-06-14T14:20:10;27.70;26.10
70807;DHT22;58882;52.170;5.386;2023-06-14T14:23:04;27.70;26.20
70807;DHT22;58882;52.170;5.386;2023-06-14T14:25:37;27.70;26.20
70807;DHT22;58882;52.170;5.386;2023-06-14T14:28:31;27.60;26.20
70807;DHT22;58882;52.170;5.386;2023-06-14T14:31:06;27.60;26.40
70807;DHT22;58882;52.170;5.386;2023-06-14T14:34:00;27.60;26.40
70807;DHT22;58882;52.170;5.386;2023-06-14T14:36:33;27.60;26.40
70807;DHT22;58882;52.170;5.386;2023-06-14T14:39:29;27.50;26.40
70807;DHT22;58882;52.170;5.386;2023-06-14T14:42:03;27.50;26.60
70807;DHT22;58882;52.170;5.386;2023-06-14T14:44:58;27.40;26.60
70807;DHT22;58882;52.170;5.386;2023-06-14T14:47:31;27.40;26.70
70807;DHT22;58882;52.170;5.386;2023-06-14T14:50:25;27.30;26.60
70807;DHT22;58882;52.170;5.386;2023-06-14T14:52:59;27.30;26.70
70807;DHT22;58882;52.170;5.386;2023-06-14T14:55:53;27.30;26.80
70807;DHT22;58882;52.170;5.386;2023-06-14T14:58:26;27.20;26.70
70807;DHT22;58882;52.170;5.386;2023-06-14T15:01:20;27.20;26.90
70807;DHT22;58882;52.170;5.386;2023-06-14T15:04:00;27.20;26.80
70807;DHT22;58882;52.170;5.386;2023-06-14T15:06:54;27.10;26.80
70807;DHT22;58882;52.170;5.386;2023-06-14T15:09:34;27.10;26.90
70807;DHT22;58882;52.170;5.386;2023-06-14T15:12:21;27.10;27.00
70807;DHT22;58882;52.170;5.386;2023-06-14T15:15:04;27.00;26.90
70807;DHT22;58882;52.170;5.386;2023-06-14T15:17:59;27.00;26.90
70807;DHT22;58882;52.170;5.386;2023-06-14T15:20:39;26.90;26.90
70807;DHT22;58882;52.170;5.386;2023-06-14T15:23:33;27.00;27.00
70807;DHT22;58882;52.170;5.386;2023-06-14T15:26:13;26.90;26.90
70807;DHT22;58882;52.170;5.386;2023-06-14T15:29:07;26.90;27.00
70807;DHT22;58882;52.170;5.386;2023-06-14T15:31:47;26.90;27.10
70807;DHT22;58882;52.170;5.386;2023-06-14T15:34:35;26.90;27.10
70807;DHT22;58882;52.170;5.386;2023-06-14T15:37:15;26.80;27.10
70807;DHT22;58882;52.170;5.386;2023-06-14T15:40:02;26.80;27.20
70807;DHT22;58882;52.170;5.386;2023-06-14T15:42:42;26.80;27.30
70807;DHT22;58882;52.170;5.386;2023-06-14T15:45:29;26.70;27.30
70807;DHT22;58882;52.170;5.386;2023-06-14T15:48:02;26.70;28.20
70807;DHT22;58882;52.170;5.386;2023-06-14T15:50:56;26.70;27.40
70807;DHT22;58882;52.170;5.386;2023-06-14T15:53:29;26.70;27.40
70807;DHT22;58882;52.170;5.386;2023-06-14T15:56:23;26.70;27.40
70807;DHT22;58882;52.170;5.386;2023-06-14T15:59:03;26.60;27.50
70807;DHT22;58882;52.170;5.386;2023-06-14T16:01:57;26.60;27.50
70807;DHT22;58882;52.170;5.386;2023-06-14T16:04:37;26.60;27.60
70807;DHT22;58882;52.170;5.386;2023-06-14T16:07:32;26.60;27.70
70807;DHT22;58882;52.170;5.386;2023-06-14T16:10:06;26.60;27.80
70807;DHT22;58882;52.170;5.386;2023-06-14T16:13:00;26.60;27.80
70807;DHT22;58882;52.170;5.386;2023-06-14T16:15:40;26.50;27.80
70807;DHT22;58882;52.170;5.386;2023-06-14T16:18:34;26.50;27.30
70807;DHT22;58882;52.170;5.386;2023-06-14T16:21:14;26.50;27.70
70807;DHT22;58882;52.170;5.386;2023-06-14T16:24:03;26.50;27.80
70807;DHT22;58882;52.170;5.386;2023-06-14T16:26:37;26.50;27.90
70807;DHT22;58882;52.170;5.386;2023-06-14T16:29:31;26.40;27.90
70807;DHT22;58882;52.170;5.386;2023-06-14T16:32:11;26.40;27.80
70807;DHT22;58882;52.170;5.386;2023-06-14T16:34:58;26.40;27.90
70807;DHT22;58882;52.170;5.386;2023-06-14T16:37:31;26.40;27.90
70807;DHT22;58882;52.170;5.386;2023-06-14T16:40:25;26.40;27.90
70807;DHT22;58882;52.170;5.386;2023-06-14T16:43:06;26.30;28.00
70807;DHT22;58882;52.170;5.386;2023-06-14T16:46:00;26.30;28.00
70807;DHT22;58882;52.170;5.386;2023-06-14T16:48:54;26.30;28.00
70807;DHT22;58882;52.170;5.386;2023-06-14T16:51:34;26.30;28.10
70807;DHT22;58882;52.170;5.386;2023-06-14T16:54:21;26.30;28.10
70807;DHT22;58882;52.170;5.386;2023-06-14T16:57:01;26.30;28.20
70807;DHT22;58882;52.170;5.386;2023-06-14T16:59:48;26.30;28.20
70807;DHT22;58882;52.170;5.386;2023-06-14T17:02:28;26.30;28.30
70807;DHT22;58882;52.170;5.386;2023-06-14T17:05:15;26.30;28.10
70807;DHT22;58882;52.170;5.386;2023-06-14T17:07:55;26.30;28.20
70807;DHT22;58882;52.170;5.386;2023-06-14T17:10:43;26.20;28.20
70807;DHT22;58882;52.170;5.386;2023-06-14T17:13:23;26.20;28.30
70807;DHT22;58882;52.170;5.386;2023-06-14T17:16:18;26.20;28.40
70807;DHT22;58882;52.170;5.386;2023-06-14T17:18:58;26.20;28.90
70807;DHT22;58882;52.170;5.386;2023-06-14T17:21:52;26.20;28.00
70807;DHT22;58882;52.170;5.386;2023-06-14T17:24:33;26.20;28.20
70807;DHT22;58882;52.170;5.386;2023-06-14T17:27:27;26.20;28.40
70807;DHT22;58882;52.170;5.386;2023-06-14T17:30:08;26.20;28.60
70807;DHT22;58882;52.170;5.386;2023-06-14T17:33:07;26.10;28.60
70807;DHT22;58882;52.170;5.386;2023-06-14T17:35:49;26.10;28.60
70807;DHT22;58882;52.170;5.386;2023-06-14T17:38:43;26.10;28.60